createdAt,value
2023-05-29T00:00:10.513Z,92784.00
2023-05-29T00:01:10.484Z,92782.00
2023-05-29T00:02:10.499Z,92782.00
2023-05-29T00:03:10.663Z,92786.00
2023-05-29T00:04:10.557Z,92784.00
2023-05-29T00:05:10.517Z,92780.00
2023-05-29T00:06:10.526Z,92780.00
2023-05-29T00:07:10.530Z,92782.00
2023-05-29T00:08:10.543Z,92778.00
2023-05-29T00:09:10.589Z,92780.00
2023-05-29T00:10:10.564Z,92780.00
2023-05-29T00:11:10.577Z,92782.00
2023-05-29T00:12:10.589Z,92782.00
2023-05-29T00:13:10.674Z,92780.00
2023-05-29T00:14:10.596Z,92784.00
2023-05-29T00:15:10.605Z,92780.00
2023-05-29T00:16:10.659Z,92782.00
2023-05-29T00:17:10.613Z,92780.00
2023-05-29T00:18:10.699Z,92780.00
2023-05-29T00:19:10.645Z,92782.00
2023-05-29T00:20:10.746Z,92780.00
2023-05-29T00:21:10.667Z,92780.00
2023-05-29T00:22:10.668Z,92776.00
2023-05-29T00:23:10.681Z,92780.00
2023-05-29T00:24:10.684Z,92780.00
2023-05-29T00:25:10.696Z,92776.00
2023-05-29T00:26:10.733Z,92776.00
2023-05-29T00:27:10.723Z,92776.00
2023-05-29T00:28:10.727Z,92776.00
2023-05-29T00:29:10.729Z,92780.00
2023-05-29T00:30:10.760Z,92782.00
2023-05-29T00:31:10.806Z,92780.00
2023-05-29T00:32:10.841Z,92782.00
2023-05-29T00:33:10.809Z,92782.00
2023-05-29T00:34:10.780Z,92778.00
2023-05-29T00:35:10.779Z,92778.00
2023-05-29T00:36:10.804Z,92776.00
2023-05-29T00:37:10.826Z,92778.00
2023-05-29T00:38:10.796Z,92778.00
2023-05-29T00:39:10.830Z,92778.00
2023-05-29T00:40:10.822Z,92780.00
2023-05-29T00:41:10.824Z,92778.00
2023-05-29T00:42:10.900Z,92780.00
2023-05-29T00:43:10.855Z,92780.00
2023-05-29T00:44:10.852Z,92780.00
2023-05-29T00:45:10.865Z,92780.00
2023-05-29T00:46:10.880Z,92782.00
2023-05-29T00:47:10.925Z,92782.00
2023-05-29T00:48:10.959Z,92782.00
2023-05-29T00:49:10.894Z,92782.00
2023-05-29T00:50:10.907Z,92784.00
2023-05-29T00:51:11.942Z,92782.00
2023-05-29T00:52:10.932Z,92780.00
2023-05-29T00:53:10.946Z,92780.00
2023-05-29T00:54:10.963Z,92780.00
2023-05-29T00:55:10.964Z,92778.00
2023-05-29T00:56:10.980Z,92778.00
2023-05-29T00:57:11.074Z,92780.00
2023-05-29T00:58:11.000Z,92780.00
2023-05-29T00:59:11.011Z,92778.00
2023-05-29T01:00:11.027Z,92778.00
2023-05-29T01:01:11.062Z,92782.00
2023-05-29T01:02:11.107Z,92776.00
2023-05-29T01:03:11.079Z,92786.00
2023-05-29T01:04:11.056Z,92786.00
2023-05-29T01:05:11.066Z,92787.00
2023-05-29T01:06:11.080Z,92787.00
2023-05-29T01:07:11.092Z,92784.00
2023-05-29T01:08:11.100Z,92789.00
2023-05-29T01:09:11.103Z,92789.00
2023-05-29T01:10:11.110Z,92791.00
2023-05-29T01:11:11.123Z,92791.00
2023-05-29T01:12:11.153Z,92793.00
2023-05-29T01:13:11.145Z,92789.00
2023-05-29T01:14:11.164Z,92795.00
2023-05-29T01:15:11.203Z,92789.00
2023-05-29T01:16:11.210Z,92787.00
2023-05-29T01:17:11.179Z,92787.00
2023-05-29T01:18:11.196Z,92793.00
2023-05-29T01:19:11.191Z,92787.00
2023-05-29T01:20:11.297Z,92795.00
2023-05-29T01:21:11.226Z,92789.00
2023-05-29T01:22:11.234Z,92793.00
2023-05-29T01:23:11.246Z,92789.00
2023-05-29T01:24:11.245Z,92789.00
2023-05-29T01:25:11.257Z,92791.00
2023-05-29T01:26:11.271Z,92789.00
2023-05-29T01:27:11.307Z,92791.00
2023-05-29T01:28:11.298Z,92789.00
2023-05-29T01:29:11.298Z,92791.00
2023-05-29T01:30:11.309Z,92791.00
2023-05-29T01:31:11.338Z,92789.00
2023-05-29T01:32:11.324Z,92789.00
2023-05-29T01:33:11.346Z,92791.00
2023-05-29T01:34:11.346Z,92793.00
2023-05-29T01:35:11.355Z,92793.00
2023-05-29T01:36:11.364Z,92791.00
2023-05-29T01:37:11.373Z,92791.00
2023-05-29T01:38:11.390Z,92791.00
2023-05-29T01:39:11.399Z,92789.00
2023-05-29T01:40:11.416Z,92791.00
2023-05-29T01:41:11.418Z,92787.00
2023-05-29T01:42:11.420Z,92789.00
2023-05-29T01:43:11.432Z,92789.00
2023-05-29T01:44:11.460Z,92789.00
2023-05-29T01:45:11.471Z,92791.00
2023-05-29T01:46:11.503Z,92791.00
2023-05-29T01:47:11.496Z,92791.00
2023-05-29T01:48:11.470Z,92791.00
2023-05-29T01:49:11.478Z,92791.00
2023-05-29T01:50:11.489Z,92791.00
2023-05-29T01:51:11.485Z,92789.00
2023-05-29T01:52:11.502Z,92789.00
2023-05-29T01:53:11.512Z,92789.00
2023-05-29T01:54:11.538Z,92789.00
2023-05-29T01:55:11.520Z,92789.00
2023-05-29T01:56:11.533Z,92789.00
2023-05-29T01:57:11.540Z,92789.00
2023-05-29T01:58:11.568Z,92789.00
2023-05-29T01:59:11.563Z,92789.00
2023-05-29T02:00:11.590Z,92791.00
2023-05-29T02:01:11.750Z,92789.00
2023-05-29T02:02:11.587Z,92791.00
2023-05-29T02:03:14.057Z,92791.00
2023-05-29T02:04:11.644Z,92789.00
2023-05-29T02:05:11.689Z,92791.00
2023-05-29T02:06:11.585Z,92791.00
2023-05-29T02:07:11.577Z,92791.00
2023-05-29T02:08:11.574Z,92787.00
2023-05-29T02:09:11.567Z,92789.00
2023-05-29T02:10:11.563Z,92787.00
2023-05-29T02:11:11.568Z,92786.00
2023-05-29T02:12:11.563Z,92786.00
2023-05-29T02:13:11.556Z,92782.00
2023-05-29T02:14:11.563Z,92786.00
2023-05-29T02:15:11.543Z,92784.00
2023-05-29T02:16:11.598Z,92786.00
2023-05-29T02:17:11.535Z,92784.00
2023-05-29T02:18:11.540Z,92786.00
2023-05-29T02:19:11.539Z,92784.00
2023-05-29T02:20:11.544Z,92787.00
2023-05-29T02:21:11.498Z,92786.00
2023-05-29T02:22:11.485Z,92791.00
2023-05-29T02:23:11.496Z,92787.00
2023-05-29T02:24:11.475Z,92791.00
2023-05-29T02:25:11.465Z,92791.00
2023-05-29T02:26:11.460Z,92791.00
2023-05-29T02:27:11.431Z,92787.00
2023-05-29T02:28:11.433Z,92789.00
2023-05-29T02:29:11.406Z,92789.00
2023-05-29T02:30:11.397Z,92789.00
2023-05-29T02:31:11.401Z,92789.00
2023-05-29T02:32:11.432Z,92791.00
2023-05-29T02:33:11.457Z,92789.00
2023-05-29T02:34:11.350Z,92791.00
2023-05-29T02:35:11.351Z,92791.00
2023-05-29T02:36:11.333Z,92791.00
2023-05-29T02:37:11.344Z,92791.00
2023-05-29T02:38:11.327Z,92793.00
2023-05-29T02:39:11.307Z,92791.00
2023-05-29T02:40:11.297Z,92793.00
2023-05-29T02:41:11.288Z,92795.00
2023-05-29T02:42:11.284Z,92793.00
2023-05-29T02:43:11.279Z,92793.00
2023-05-29T02:44:11.282Z,92793.00
2023-05-29T02:45:11.279Z,92791.00
2023-05-29T02:46:11.339Z,92789.00
2023-05-29T02:47:11.273Z,92787.00
2023-05-29T02:48:11.307Z,92787.00
2023-05-29T02:49:11.247Z,92787.00
2023-05-29T02:50:11.238Z,92787.00
2023-05-29T02:51:11.228Z,92789.00
2023-05-29T02:52:11.210Z,92787.00
2023-05-29T02:53:11.207Z,92786.00
2023-05-29T02:54:11.189Z,92786.00
2023-05-29T02:55:11.171Z,92784.00
2023-05-29T02:56:11.182Z,92786.00
2023-05-29T02:57:12.440Z,92786.00
2023-05-29T02:58:11.158Z,92784.00
2023-05-29T02:59:11.147Z,92786.00
2023-05-29T03:00:11.151Z,92786.00
2023-05-29T03:01:11.194Z,92787.00
2023-05-29T03:02:11.142Z,92789.00
2023-05-29T03:03:11.228Z,92786.00
2023-05-29T03:04:11.141Z,92787.00
2023-05-29T03:05:11.282Z,92786.00
2023-05-29T03:06:11.128Z,92786.00
2023-05-29T03:07:11.131Z,92786.00
2023-05-29T03:08:11.117Z,92786.00
2023-05-29T03:09:11.117Z,92787.00
2023-05-29T03:10:11.126Z,92786.00
2023-05-29T03:11:11.103Z,92784.00
2023-05-29T03:12:11.110Z,92786.00
2023-05-29T03:13:11.129Z,92784.00
2023-05-29T03:14:11.124Z,92784.00
2023-05-29T03:15:11.112Z,92784.00
2023-05-29T03:16:11.143Z,92784.00
2023-05-29T03:17:11.085Z,92787.00
2023-05-29T03:18:11.139Z,92786.00
2023-05-29T03:19:11.088Z,92786.00
2023-05-29T03:20:11.090Z,92786.00
2023-05-29T03:21:11.069Z,92786.00
2023-05-29T03:22:11.082Z,92784.00
2023-05-29T03:23:11.065Z,92787.00
2023-05-29T03:24:11.091Z,92787.00
2023-05-29T03:25:11.072Z,92786.00
2023-05-29T03:26:11.073Z,92786.00
2023-05-29T03:27:11.085Z,92787.00
2023-05-29T03:28:11.080Z,92787.00
2023-05-29T03:29:11.075Z,92789.00
2023-05-29T03:30:11.078Z,92789.00
2023-05-29T03:31:11.090Z,92789.00
2023-05-29T03:32:11.063Z,92791.00
2023-05-29T03:33:11.072Z,92791.00
2023-05-29T03:34:11.064Z,92793.00
2023-05-29T03:35:11.066Z,92791.00
2023-05-29T03:36:11.050Z,92791.00
2023-05-29T03:37:11.226Z,92791.00
2023-05-29T03:38:11.068Z,92793.00
2023-05-29T03:39:11.059Z,92793.00
2023-05-29T03:40:11.051Z,92793.00
2023-05-29T03:41:11.053Z,92793.00
2023-05-29T03:42:11.053Z,92795.00
2023-05-29T03:43:11.029Z,92795.00
2023-05-29T03:44:11.040Z,92795.00
2023-05-29T03:45:11.041Z,92795.00
2023-05-29T03:46:11.034Z,92797.00
2023-05-29T03:47:11.140Z,92797.00
2023-05-29T03:48:11.049Z,92797.00
2023-05-29T03:49:11.038Z,92797.00
2023-05-29T03:50:11.062Z,92797.00
2023-05-29T03:51:11.022Z,92799.00
2023-05-29T03:52:11.031Z,92795.00
2023-05-29T03:53:11.016Z,92797.00
2023-05-29T03:54:11.021Z,92797.00
2023-05-29T03:55:11.021Z,92801.00
2023-05-29T03:56:11.073Z,92801.00
2023-05-29T03:57:10.994Z,92799.00
2023-05-29T03:58:10.984Z,92799.00
2023-05-29T03:59:10.965Z,92797.00
2023-05-29T04:00:10.958Z,92797.00
2023-05-29T04:01:10.961Z,92797.00
2023-05-29T04:02:13.800Z,92799.00
2023-05-29T04:03:11.119Z,92797.00
2023-05-29T04:04:11.035Z,92799.00
2023-05-29T04:05:10.971Z,92799.00
2023-05-29T04:06:10.964Z,92799.00
2023-05-29T04:07:10.962Z,92797.00
2023-05-29T04:08:16.031Z,92803.00
2023-05-29T04:09:11.959Z,92801.00
2023-05-29T04:10:10.957Z,92803.00
2023-05-29T04:11:10.946Z,92803.00
2023-05-29T04:12:10.956Z,92803.00
2023-05-29T04:13:10.981Z,92803.00
2023-05-29T04:14:10.977Z,92805.00
2023-05-29T04:15:10.949Z,92803.00
2023-05-29T04:16:10.956Z,92807.00
2023-05-29T04:17:11.047Z,92809.00
2023-05-29T04:18:11.050Z,92809.00
2023-05-29T04:19:10.945Z,92811.00
2023-05-29T04:20:11.022Z,92809.00
2023-05-29T04:21:10.960Z,92811.00
2023-05-29T04:22:10.961Z,92811.00
2023-05-29T04:23:11.017Z,92811.00
2023-05-29T04:24:10.982Z,92809.00
2023-05-29T04:25:10.983Z,92807.00
2023-05-29T04:26:10.980Z,92809.00
2023-05-29T04:27:10.980Z,92811.00
2023-05-29T04:28:10.994Z,92809.00
2023-05-29T04:29:12.164Z,92809.00
2023-05-29T04:30:11.044Z,92813.00
2023-05-29T04:31:11.019Z,92811.00
2023-05-29T04:32:10.984Z,92813.00
2023-05-29T04:33:11.033Z,92813.00
2023-05-29T04:34:10.972Z,92811.00
2023-05-29T04:35:10.958Z,92811.00
2023-05-29T04:36:10.953Z,92811.00
2023-05-29T04:37:10.957Z,92811.00
2023-05-29T04:38:10.957Z,92813.00
2023-05-29T04:39:10.961Z,92813.00
2023-05-29T04:40:10.972Z,92809.00
2023-05-29T04:41:10.949Z,92813.00
2023-05-29T04:42:10.947Z,92813.00
2023-05-29T04:43:10.949Z,92811.00
2023-05-29T04:44:10.942Z,92815.00
2023-05-29T04:45:10.932Z,92813.00
2023-05-29T04:46:10.947Z,92813.00
2023-05-29T04:47:10.910Z,92813.00
2023-05-29T04:48:10.960Z,92815.00
2023-05-29T04:49:10.893Z,92815.00
2023-05-29T04:50:10.892Z,92813.00
2023-05-29T04:51:10.911Z,92817.00
2023-05-29T04:52:10.898Z,92813.00
2023-05-29T04:53:10.998Z,92811.00
2023-05-29T04:54:10.888Z,92813.00
2023-05-29T04:55:10.879Z,92815.00
2023-05-29T04:56:10.893Z,92813.00
2023-05-29T04:57:10.870Z,92815.00
2023-05-29T04:58:10.870Z,92815.00
2023-05-29T04:59:10.865Z,92817.00
2023-05-29T05:00:10.880Z,92815.00
2023-05-29T05:01:10.844Z,92817.00
2023-05-29T05:02:10.874Z,92817.00
2023-05-29T05:03:10.887Z,92815.00
2023-05-29T05:04:10.906Z,92813.00
2023-05-29T05:05:10.800Z,92813.00
2023-05-29T05:06:10.788Z,92813.00
2023-05-29T05:07:10.778Z,92813.00
2023-05-29T05:08:10.779Z,92815.00
2023-05-29T05:09:10.771Z,92813.00
2023-05-29T05:10:10.756Z,92813.00
2023-05-29T05:11:10.749Z,92811.00
2023-05-29T05:12:10.747Z,92813.00
2023-05-29T05:13:10.820Z,92813.00
2023-05-29T05:14:10.730Z,92809.00
2023-05-29T05:15:10.731Z,92811.00
2023-05-29T05:16:10.748Z,92811.00
2023-05-29T05:17:10.726Z,92813.00
2023-05-29T05:18:10.730Z,92811.00
2023-05-29T05:19:10.729Z,92811.00
2023-05-29T05:20:10.753Z,92813.00
2023-05-29T05:21:10.749Z,92815.00
2023-05-29T05:22:10.732Z,92813.00
2023-05-29T05:23:10.726Z,92815.00
2023-05-29T05:24:10.722Z,92813.00
2023-05-29T05:25:10.717Z,92815.00
2023-05-29T05:26:10.696Z,92815.00
2023-05-29T05:27:10.696Z,92813.00
2023-05-29T05:28:10.685Z,92817.00
2023-05-29T05:29:10.680Z,92813.00
2023-05-29T05:30:10.680Z,92817.00
2023-05-29T05:31:10.682Z,92815.00
2023-05-29T05:32:10.764Z,92815.00
2023-05-29T05:33:10.710Z,92815.00
2023-05-29T05:34:10.702Z,92815.00
2023-05-29T05:35:10.671Z,92815.00
2023-05-29T05:36:10.673Z,92813.00
2023-05-29T05:37:10.671Z,92815.00
2023-05-29T05:38:10.683Z,92811.00
2023-05-29T05:39:10.666Z,92809.00
2023-05-29T05:40:10.672Z,92811.00
2023-05-29T05:41:10.653Z,92809.00
2023-05-29T05:42:10.660Z,92807.00
2023-05-29T05:43:10.666Z,92807.00
2023-05-29T05:44:10.663Z,92807.00
2023-05-29T05:45:10.654Z,92805.00
2023-05-29T05:46:10.701Z,92807.00
2023-05-29T05:47:10.645Z,92805.00
2023-05-29T05:48:10.676Z,92807.00
2023-05-29T05:49:10.634Z,92805.00
2023-05-29T05:50:10.634Z,92803.00
2023-05-29T05:51:10.625Z,92805.00
2023-05-29T05:52:10.623Z,92805.00
2023-05-29T05:53:10.609Z,92803.00
2023-05-29T05:54:10.601Z,92803.00
2023-05-29T05:55:10.604Z,92803.00
2023-05-29T05:56:10.596Z,92805.00
2023-05-29T05:57:10.598Z,92801.00
2023-05-29T05:58:10.585Z,92801.00
2023-05-29T05:59:10.575Z,92803.00
2023-05-29T06:00:10.582Z,92803.00
2023-05-29T06:01:10.567Z,92801.00
2023-05-29T06:02:10.620Z,92799.00
2023-05-29T06:03:10.667Z,92799.00
2023-05-29T06:04:10.609Z,92797.00
2023-05-29T06:05:10.527Z,92797.00
2023-05-29T06:06:10.498Z,92799.00
2023-05-29T06:07:10.500Z,92795.00
2023-05-29T06:08:10.510Z,92795.00
2023-05-29T06:09:10.489Z,92799.00
2023-05-29T06:10:10.483Z,92797.00
2023-05-29T06:11:11.046Z,92795.00
2023-05-29T06:12:10.482Z,92791.00
2023-05-29T06:13:10.492Z,92793.00
2023-05-29T06:14:10.485Z,92793.00
2023-05-29T06:15:10.490Z,92791.00
2023-05-29T06:16:10.507Z,92793.00
2023-05-29T06:17:10.552Z,92791.00
2023-05-29T06:18:10.502Z,92795.00
2023-05-29T06:19:10.458Z,92789.00
2023-05-29T06:20:10.469Z,92789.00
2023-05-29T06:21:10.445Z,92793.00
2023-05-29T06:22:10.428Z,92791.00
2023-05-29T06:23:10.424Z,92789.00
2023-05-29T06:24:10.406Z,92791.00
2023-05-29T06:25:10.462Z,92787.00
2023-05-29T06:26:10.383Z,92789.00
2023-05-29T06:27:10.451Z,92789.00
2023-05-29T06:28:10.363Z,92787.00
2023-05-29T06:29:10.345Z,92787.00
2023-05-29T06:30:10.336Z,92791.00
2023-05-29T06:31:10.386Z,92789.00
2023-05-29T06:32:10.311Z,92787.00
2023-05-29T06:33:10.367Z,92787.00
2023-05-29T06:34:10.293Z,92789.00
2023-05-29T06:35:10.301Z,92789.00
2023-05-29T06:36:10.292Z,92787.00
2023-05-29T06:37:10.270Z,92786.00
2023-05-29T06:38:10.257Z,92786.00
2023-05-29T06:39:10.247Z,92786.00
2023-05-29T06:40:10.255Z,92784.00
2023-05-29T06:41:10.237Z,92784.00
2023-05-29T06:42:10.240Z,92784.00
2023-05-29T06:43:10.293Z,92784.00
2023-05-29T06:44:10.221Z,92782.00
2023-05-29T06:45:10.223Z,92786.00
2023-05-29T06:46:10.210Z,92784.00
2023-05-29T06:47:10.252Z,92784.00
2023-05-29T06:48:10.242Z,92784.00
2023-05-29T06:49:10.192Z,92784.00
2023-05-29T06:50:10.193Z,92782.00
2023-05-29T06:51:10.191Z,92784.00
2023-05-29T06:52:10.172Z,92784.00
2023-05-29T06:53:10.198Z,92780.00
2023-05-29T06:54:10.167Z,92778.00
2023-05-29T06:55:10.152Z,92782.00
2023-05-29T06:56:10.153Z,92782.00
2023-05-29T06:57:11.441Z,92780.00
2023-05-29T06:58:10.138Z,92778.00
2023-05-29T06:59:10.136Z,92778.00
2023-05-29T07:00:10.132Z,92776.00
2023-05-29T07:01:10.166Z,92774.00
2023-05-29T07:02:10.127Z,92772.00
2023-05-29T07:03:10.234Z,92772.00
2023-05-29T07:04:10.151Z,92770.00
2023-05-29T07:05:10.118Z,92768.00
2023-05-29T07:06:10.113Z,92766.00
2023-05-29T07:07:10.113Z,92762.00
2023-05-29T07:08:10.146Z,92762.00
2023-05-29T07:09:10.110Z,92764.00
2023-05-29T07:10:10.117Z,92764.00
2023-05-29T07:11:10.119Z,92762.00
2023-05-29T07:12:10.113Z,92760.00
2023-05-29T07:13:10.115Z,92758.00
2023-05-29T07:14:10.130Z,92756.00
2023-05-29T07:15:10.117Z,92756.00
2023-05-29T07:16:20.855Z,92754.00
2023-05-29T07:17:11.156Z,92754.00
2023-05-29T07:18:10.189Z,92754.00
2023-05-29T07:19:19.723Z,92754.00
2023-05-29T07:20:11.220Z,92752.00
2023-05-29T07:21:10.083Z,92754.00
2023-05-29T07:22:10.088Z,92754.00
2023-05-29T07:23:10.089Z,92750.00
2023-05-29T07:24:10.558Z,92752.00
2023-05-29T07:25:10.076Z,92752.00
2023-05-29T07:26:10.072Z,92748.00
2023-05-29T07:27:10.065Z,92752.00
2023-05-29T07:28:21.666Z,92748.00
2023-05-29T07:29:11.044Z,92748.00
2023-05-29T07:30:10.046Z,92750.00
2023-05-29T07:31:10.036Z,92748.00
2023-05-29T07:32:10.141Z,92746.00
2023-05-29T07:33:10.088Z,92744.00
2023-05-29T07:34:10.018Z,92744.00
2023-05-29T07:35:10.031Z,92744.00
2023-05-29T07:36:10.014Z,92742.00
2023-05-29T07:37:10.011Z,92744.00
2023-05-29T07:38:10.013Z,92742.00
2023-05-29T07:39:09.997Z,92742.00
2023-05-29T07:40:10.004Z,92742.00
2023-05-29T07:41:09.991Z,92740.00
2023-05-29T07:42:10.555Z,92740.00
2023-05-29T07:43:09.981Z,92738.00
2023-05-29T07:44:09.973Z,92735.00
2023-05-29T07:45:09.967Z,92736.00
2023-05-29T07:46:10.017Z,92735.00
2023-05-29T07:47:09.973Z,92733.00
2023-05-29T07:48:10.045Z,92733.00
2023-05-29T07:49:09.965Z,92731.00
2023-05-29T07:50:09.965Z,92733.00
2023-05-29T07:51:09.957Z,92731.00
2023-05-29T07:52:09.966Z,92731.00
2023-05-29T07:53:09.952Z,92731.00
2023-05-29T07:54:09.925Z,92735.00
2023-05-29T07:55:09.918Z,92731.00
2023-05-29T07:56:09.915Z,92731.00
2023-05-29T07:57:09.910Z,92731.00
2023-05-29T07:58:10.900Z,92735.00
2023-05-29T07:59:09.907Z,92733.00
2023-05-29T08:00:09.883Z,92731.00
2023-05-29T08:01:09.870Z,92731.00
2023-05-29T08:02:09.873Z,92729.00
2023-05-29T08:03:09.912Z,92727.00
2023-05-29T08:04:09.927Z,92731.00
2023-05-29T08:05:09.900Z,92725.00
2023-05-29T08:06:09.843Z,92723.00
2023-05-29T08:07:09.861Z,92721.00
2023-05-29T08:08:09.817Z,92721.00
2023-05-29T08:09:09.823Z,92727.00
2023-05-29T08:10:09.813Z,92725.00
2023-05-29T08:11:09.801Z,92717.00
2023-05-29T08:12:09.785Z,92725.00
2023-05-29T08:13:09.794Z,92725.00
2023-05-29T08:14:09.781Z,92725.00
2023-05-29T08:15:09.783Z,92723.00
2023-05-29T08:16:09.811Z,92723.00
2023-05-29T08:17:09.762Z,92721.00
2023-05-29T08:18:09.890Z,92721.00
2023-05-29T08:19:09.751Z,92721.00
2023-05-29T08:20:09.781Z,92721.00
2023-05-29T08:21:09.749Z,92721.00
2023-05-29T08:22:09.739Z,92721.00
2023-05-29T08:23:09.725Z,92719.00
2023-05-29T08:24:09.714Z,92719.00
2023-05-29T08:25:09.724Z,92717.00
2023-05-29T08:26:09.705Z,92715.00
2023-05-29T08:27:09.694Z,92717.00
2023-05-29T08:28:09.669Z,92715.00
2023-05-29T08:29:09.663Z,92711.00
2023-05-29T08:30:09.657Z,92711.00
2023-05-29T08:31:09.714Z,92711.00
2023-05-29T08:32:09.645Z,92709.00
2023-05-29T08:33:09.735Z,92707.00
2023-05-29T08:34:09.643Z,92705.00
2023-05-29T08:35:09.640Z,92703.00
2023-05-29T08:36:09.629Z,92703.00
2023-05-29T08:37:09.632Z,92703.00
2023-05-29T08:38:09.613Z,92701.00
2023-05-29T08:39:09.590Z,92699.00
2023-05-29T08:40:09.590Z,92701.00
2023-05-29T08:41:09.637Z,92693.00
2023-05-29T08:42:09.573Z,92693.00
2023-05-29T08:43:10.089Z,92693.00
2023-05-29T08:44:09.574Z,92691.00
2023-05-29T08:45:09.559Z,92691.00
2023-05-29T08:46:09.574Z,92691.00
2023-05-29T08:47:09.543Z,92689.00
2023-05-29T08:48:09.568Z,92687.00
2023-05-29T08:49:09.536Z,92687.00
2023-05-29T08:50:09.544Z,92685.00
2023-05-29T08:51:09.546Z,92685.00
2023-05-29T08:52:09.538Z,92680.00
2023-05-29T08:53:09.539Z,92682.00
2023-05-29T08:54:09.537Z,92680.00
2023-05-29T08:55:09.535Z,92678.00
2023-05-29T08:57:09.591Z,92674.00
2023-05-29T08:58:09.587Z,92672.00
2023-05-29T08:59:09.615Z,92672.00
2023-05-29T09:00:09.544Z,92670.00
2023-05-29T09:01:09.574Z,92668.00
2023-05-29T09:02:09.533Z,92670.00
2023-05-29T09:03:09.702Z,92668.00
2023-05-29T09:04:09.542Z,92668.00
2023-05-29T09:05:09.514Z,92668.00
2023-05-29T09:06:09.514Z,92668.00
2023-05-29T09:07:09.537Z,92668.00
2023-05-29T09:08:09.549Z,92666.00
2023-05-29T09:09:09.524Z,92666.00
2023-05-29T09:10:09.528Z,92664.00
2023-05-29T09:11:09.529Z,92664.00
2023-05-29T09:12:09.528Z,92662.00
2023-05-29T09:13:09.543Z,92660.00
2023-05-29T09:14:09.696Z,92658.00
2023-05-29T09:15:09.729Z,92658.00
2023-05-29T09:16:09.541Z,92662.00
2023-05-29T09:17:09.522Z,92660.00
2023-05-29T09:18:09.566Z,92660.00
2023-05-29T09:19:10.939Z,92658.00
2023-05-29T09:20:09.543Z,92658.00
2023-05-29T09:21:09.531Z,92656.00
2023-05-29T09:22:09.524Z,92654.00
2023-05-29T09:23:09.517Z,92654.00
2023-05-29T09:24:09.513Z,92654.00
2023-05-29T09:25:09.517Z,92652.00
2023-05-29T09:26:09.512Z,92652.00
2023-05-29T09:27:09.525Z,92652.00
2023-05-29T09:28:09.573Z,92650.00
2023-05-29T09:29:09.516Z,92650.00
2023-05-29T09:30:09.522Z,92646.00
2023-05-29T09:31:09.586Z,92648.00
2023-05-29T09:32:09.537Z,92650.00
2023-05-29T09:33:09.588Z,92650.00
2023-05-29T09:34:09.532Z,92648.00
2023-05-29T09:35:09.537Z,92648.00
2023-05-29T09:36:09.512Z,92650.00
2023-05-29T09:37:09.523Z,92648.00
2023-05-29T09:38:09.601Z,92648.00
2023-05-29T09:39:17.087Z,92646.00
2023-05-29T09:40:10.506Z,92646.00
2023-05-29T09:41:09.492Z,92646.00
2023-05-29T09:42:09.489Z,92646.00
2023-05-29T09:43:09.476Z,92646.00
2023-05-29T09:44:09.476Z,92644.00
2023-05-29T09:45:09.465Z,92644.00
2023-05-29T09:46:09.474Z,92642.00
2023-05-29T09:47:09.453Z,92644.00
2023-05-29T09:48:09.507Z,92644.00
2023-05-29T09:49:09.515Z,92644.00
2023-05-29T09:50:09.416Z,92644.00
2023-05-29T09:51:09.415Z,92644.00
2023-05-29T09:52:09.406Z,92648.00
2023-05-29T09:53:09.421Z,92644.00
2023-05-29T09:54:09.385Z,92646.00
2023-05-29T09:55:09.374Z,92646.00
2023-05-29T09:56:09.367Z,92642.00
2023-05-29T09:57:09.357Z,92642.00
2023-05-29T09:58:09.344Z,92640.00
2023-05-29T09:59:09.336Z,92638.00
2023-05-29T10:00:09.328Z,92638.00
2023-05-29T10:01:09.354Z,92637.00
2023-05-29T10:02:09.336Z,92635.00
2023-05-29T10:03:09.351Z,92631.00
2023-05-29T10:04:09.279Z,92633.00
2023-05-29T10:05:09.278Z,92629.00
2023-05-29T10:06:09.525Z,92627.00
2023-05-29T10:07:09.263Z,92625.00
2023-05-29T10:08:09.257Z,92625.00
2023-05-29T10:09:09.241Z,92625.00
2023-05-29T10:10:09.231Z,92627.00
2023-05-29T10:11:09.205Z,92623.00
2023-05-29T10:12:09.183Z,92625.00
2023-05-29T10:13:09.171Z,92619.00
2023-05-29T10:14:09.150Z,92621.00
2023-05-29T10:15:09.140Z,92621.00
2023-05-29T10:16:09.161Z,92617.00
2023-05-29T10:17:09.153Z,92615.00
2023-05-29T10:18:09.193Z,92613.00
2023-05-29T10:19:09.119Z,92611.00
2023-05-29T10:20:09.128Z,92611.00
2023-05-29T10:21:09.092Z,92609.00
2023-05-29T10:22:09.080Z,92607.00
2023-05-29T10:23:09.067Z,92605.00
2023-05-29T10:24:09.073Z,92605.00
2023-05-29T10:25:09.066Z,92603.00
2023-05-29T10:26:09.065Z,92601.00
2023-05-29T10:27:09.075Z,92601.00
2023-05-29T10:28:09.070Z,92599.00
2023-05-29T10:29:09.079Z,92599.00
2023-05-29T10:30:09.064Z,92599.00
2023-05-29T10:31:09.060Z,92597.00
2023-05-29T10:32:09.114Z,92601.00
2023-05-29T10:33:09.110Z,92599.00
2023-05-29T10:34:09.047Z,92601.00
2023-05-29T10:35:09.041Z,92597.00
2023-05-29T10:36:09.041Z,92599.00
2023-05-29T10:37:09.036Z,92593.00
2023-05-29T10:38:09.026Z,92595.00
2023-05-29T10:39:09.025Z,92591.00
2023-05-29T10:40:09.063Z,92587.00
2023-05-29T10:41:09.060Z,92587.00
2023-05-29T10:42:09.630Z,92587.00
2023-05-29T10:43:09.027Z,92587.00
2023-05-29T10:44:09.010Z,92585.00
2023-05-29T10:45:09.005Z,92582.00
2023-05-29T10:46:09.071Z,92582.00
2023-05-29T10:47:09.022Z,92580.00
2023-05-29T10:48:09.033Z,92576.00
2023-05-29T10:49:08.976Z,92578.00
2023-05-29T10:50:08.979Z,92568.00
2023-05-29T10:51:09.029Z,92576.00
2023-05-29T10:52:08.970Z,92568.00
2023-05-29T10:53:08.951Z,92568.00
2023-05-29T10:54:08.937Z,92566.00
2023-05-29T10:55:08.927Z,92564.00
2023-05-29T10:56:08.938Z,92562.00
2023-05-29T10:57:08.928Z,92564.00
2023-05-29T10:58:08.915Z,92564.00
2023-05-29T10:59:08.912Z,92562.00
2023-05-29T11:00:08.910Z,92562.00
2023-05-29T11:01:08.920Z,92560.00
2023-05-29T11:02:08.887Z,92564.00
2023-05-29T11:03:08.919Z,92558.00
2023-05-29T11:04:08.957Z,92560.00
2023-05-29T11:05:08.857Z,92562.00
2023-05-29T11:06:08.870Z,92562.00
2023-05-29T11:07:08.849Z,92560.00
2023-05-29T11:08:08.868Z,92560.00
2023-05-29T11:09:08.902Z,92560.00
2023-05-29T11:10:08.908Z,92560.00
2023-05-29T11:11:08.905Z,92560.00
2023-05-29T11:12:08.893Z,92560.00
2023-05-29T11:13:08.907Z,92560.00
2023-05-29T11:14:08.922Z,92558.00
2023-05-29T11:15:08.865Z,92562.00
2023-05-29T11:16:08.864Z,92554.00
2023-05-29T11:17:08.864Z,92556.00
2023-05-29T11:18:09.067Z,92554.00
2023-05-29T11:19:08.998Z,92556.00
2023-05-29T11:20:09.048Z,92550.00
2023-05-29T11:21:08.917Z,92552.00
2023-05-29T11:22:08.944Z,92554.00
2023-05-29T11:23:08.998Z,92546.00
2023-05-29T11:24:08.943Z,92546.00
2023-05-29T11:25:08.929Z,92548.00
2023-05-29T11:26:08.916Z,92548.00
2023-05-29T11:27:08.906Z,92546.00
2023-05-29T11:28:08.922Z,92546.00
2023-05-29T11:29:08.919Z,92543.00
2023-05-29T11:30:08.910Z,92545.00
2023-05-29T11:31:08.942Z,92545.00
2023-05-29T11:32:08.959Z,92539.00
2023-05-29T11:33:08.967Z,92545.00
2023-05-29T11:34:08.935Z,92541.00
2023-05-29T11:35:08.949Z,92539.00
2023-05-29T11:36:08.915Z,92539.00
2023-05-29T11:37:08.920Z,92537.00
2023-05-29T11:38:08.892Z,92535.00
2023-05-29T11:39:08.885Z,92541.00
2023-05-29T11:40:08.886Z,92539.00
2023-05-29T11:41:08.877Z,92533.00
2023-05-29T11:42:08.881Z,92531.00
2023-05-29T11:43:08.876Z,92531.00
2023-05-29T11:44:08.893Z,92535.00
2023-05-29T11:45:08.867Z,92529.00